createdAt,value
2018-08-19T00:02:25.363Z,18.23
2018-08-19T00:05:05.995Z,18.20
2018-08-19T00:07:35.770Z,18.14
2018-08-19T00:10:06.263Z,18.15
2018-08-19T00:12:43.602Z,18.08
2018-08-19T00:15:13.558Z,18.09
2018-08-19T00:17:43.380Z,18.11
2018-08-19T00:20:13.898Z,18.10
2018-08-19T00:22:43.684Z,18.05
2018-08-19T00:25:23.443Z,18.03
2018-08-19T00:27:53.131Z,17.96
2018-08-19T00:30:22.788Z,17.94
2018-08-19T00:32:52.460Z,17.93
2018-08-19T00:35:22.253Z,17.93
2018-08-19T00:37:51.955Z,17.84
2018-08-19T00:40:22.142Z,17.67
2018-08-19T00:42:51.855Z,17.60
2018-08-19T00:45:21.549Z,17.60
2018-08-19T00:47:51.286Z,17.56
2018-08-19T00:50:24.069Z,17.56
2018-08-19T00:52:54.476Z,17.52
2018-08-19T00:55:24.726Z,17.61
2018-08-19T00:57:58.375Z,17.73
2018-08-19T01:00:29.463Z,17.81
2018-08-19T01:02:59.171Z,17.82
2018-08-19T01:05:28.828Z,17.76
2018-08-19T01:07:58.536Z,17.73
2018-08-19T01:10:28.255Z,17.79
2018-08-19T01:12:57.996Z,17.77
2018-08-19T01:15:27.664Z,17.67
2018-08-19T01:17:58.379Z,17.59
2018-08-19T01:20:28.215Z,17.40
2018-08-19T01:22:57.887Z,17.44
2018-08-19T01:25:27.603Z,17.40
2018-08-19T01:27:57.403Z,17.26
2018-08-19T01:30:27.469Z,17.36
2018-08-19T01:32:57.165Z,17.39
2018-08-19T01:35:32.679Z,17.24
2018-08-19T01:38:02.379Z,17.22
2018-08-19T01:40:32.071Z,17.29
2018-08-19T01:43:01.787Z,17.31
2018-08-19T01:45:31.499Z,17.18
2018-08-19T01:48:01.205Z,17.13
2018-08-19T01:50:30.920Z,17.16
2018-08-19T01:53:00.590Z,17.18
2018-08-19T01:55:31.605Z,17.20
2018-08-19T01:58:01.367Z,17.26
2018-08-19T02:00:31.072Z,17.27
2018-08-19T02:03:05.603Z,17.20
2018-08-19T02:05:35.323Z,17.32
2018-08-19T02:08:05.597Z,17.37
2018-08-19T02:10:35.791Z,17.34
2018-08-19T02:13:05.599Z,17.35
2018-08-19T02:15:35.332Z,17.36
2018-08-19T02:18:05.784Z,17.34
2018-08-19T02:20:40.714Z,17.30
2018-08-19T02:23:12.561Z,17.29
2018-08-19T02:25:45.329Z,17.20
2018-08-19T02:28:17.971Z,17.04
2018-08-19T02:30:53.398Z,17.04
2018-08-19T02:33:24.018Z,17.11
2018-08-19T02:36:01.895Z,17.11
2018-08-19T02:38:31.908Z,17.12
2018-08-19T02:41:01.651Z,17.05
2018-08-19T02:43:31.340Z,16.78
2018-08-19T02:46:01.042Z,16.86
2018-08-19T02:48:44.809Z,16.84
2018-08-19T02:51:17.648Z,16.85
2018-08-19T02:53:49.357Z,16.77
2018-08-19T02:56:19.846Z,16.76
2018-08-19T02:58:49.780Z,16.75
2018-08-19T03:01:19.580Z,16.79
2018-08-19T03:03:49.253Z,16.84
2018-08-19T03:06:18.995Z,16.78
2018-08-19T03:08:59.805Z,16.75
2018-08-19T03:11:29.489Z,16.83
2018-08-19T03:13:59.169Z,16.84
2018-08-19T03:16:28.839Z,16.79
2018-08-19T03:18:58.527Z,16.74
2018-08-19T03:21:28.207Z,16.82
2018-08-19T03:23:58.294Z,16.82
2018-08-19T03:26:29.355Z,16.77
2018-08-19T03:29:02.284Z,16.74
2018-08-19T03:31:31.972Z,16.71
2018-08-19T03:34:01.634Z,16.70
2018-08-19T03:36:31.400Z,16.66
2018-08-19T03:39:13.092Z,16.63
2018-08-19T03:41:42.813Z,16.58
2018-08-19T03:44:12.455Z,16.58
2018-08-19T03:46:42.176Z,16.56
2018-08-19T03:49:11.844Z,16.58
2018-08-19T03:51:42.315Z,16.55
2018-08-19T03:54:11.980Z,16.54
2018-08-19T03:56:41.657Z,16.60
2018-08-19T03:59:12.837Z,16.64
2018-08-19T04:01:44.008Z,16.62
2018-08-19T04:04:15.987Z,16.59
2018-08-19T04:06:45.692Z,16.63
2018-08-19T04:09:15.347Z,16.59
2018-08-19T04:11:49.968Z,16.67
2018-08-19T04:14:27.581Z,16.62
2018-08-19T04:17:01.341Z,16.66
2018-08-19T04:19:31.251Z,16.62
2018-08-19T04:22:02.908Z,16.63
2018-08-19T04:24:33.137Z,16.56
2018-08-19T04:27:05.578Z,16.44
2018-08-19T04:29:35.612Z,16.50
2018-08-19T04:32:06.323Z,16.44
2018-08-19T04:34:35.988Z,16.36
2018-08-19T04:37:05.691Z,16.32
2018-08-19T04:39:35.328Z,16.33
2018-08-19T04:42:05.099Z,16.26
2018-08-19T04:44:34.773Z,16.34
2018-08-19T04:47:19.721Z,16.39
2018-08-19T04:49:50.777Z,16.36
2018-08-19T04:52:22.212Z,16.38
2018-08-19T04:54:53.000Z,16.34
2018-08-19T04:57:22.765Z,16.28
2018-08-19T04:59:52.475Z,16.34
2018-08-19T05:02:22.349Z,16.44
2018-08-19T05:04:52.004Z,16.47
2018-08-19T05:07:21.679Z,16.52
2018-08-19T05:09:51.356Z,16.49
2018-08-19T05:12:21.004Z,16.51
2018-08-19T05:14:50.733Z,16.47
2018-08-19T05:17:20.388Z,16.46
2018-08-19T05:19:50.580Z,16.48
2018-08-19T05:22:20.419Z,16.47
2018-08-19T05:24:50.283Z,16.40
2018-08-19T05:27:19.949Z,16.41
2018-08-19T05:29:49.653Z,16.39
2018-08-19T05:32:19.384Z,16.42
2018-08-19T05:34:49.071Z,16.44
2018-08-19T05:37:18.792Z,16.45
2018-08-19T05:40:03.673Z,16.53
2018-08-19T05:42:33.379Z,16.52
2018-08-19T05:45:03.088Z,16.68
2018-08-19T05:47:32.771Z,16.79
2018-08-19T05:50:02.453Z,16.89
2018-08-19T05:52:32.479Z,16.99
2018-08-19T05:55:02.157Z,17.08
2018-08-19T05:57:33.267Z,17.13
2018-08-19T06:00:08.232Z,17.28
2018-08-19T06:02:42.909Z,17.26
2018-08-19T06:05:12.706Z,17.40
2018-08-19T06:07:42.605Z,17.55
2018-08-19T06:10:12.214Z,17.74
2018-08-19T06:12:41.902Z,17.83
2018-08-19T06:15:11.635Z,17.96
2018-08-19T06:17:41.326Z,17.96
2018-08-19T06:20:11.042Z,18.05
2018-08-19T06:22:41.517Z,18.03
2018-08-19T06:25:12.139Z,18.03
2018-08-19T06:27:45.868Z,18.09
2018-08-19T06:30:16.444Z,18.08
2018-08-19T06:32:46.276Z,18.18
2018-08-19T06:35:16.278Z,18.35
2018-08-19T06:37:46.011Z,18.40
2018-08-19T06:40:19.276Z,18.45
2018-08-19T06:42:49.009Z,18.61
2018-08-19T06:45:18.761Z,18.82
2018-08-19T06:47:48.712Z,18.94
2018-08-19T06:50:25.476Z,19.06
2018-08-19T06:52:55.923Z,19.19
2018-08-19T06:55:25.763Z,19.32
2018-08-19T06:57:57.290Z,19.47
2018-08-19T07:00:31.168Z,19.60
2018-08-19T07:03:02.161Z,19.87
2018-08-19T07:05:32.593Z,19.97
2018-08-19T07:08:02.607Z,20.10
2018-08-19T07:10:36.383Z,20.26
2018-08-19T07:13:09.488Z,20.38
2018-08-19T07:15:40.569Z,20.47
2018-08-19T07:18:12.915Z,20.50
2018-08-19T07:20:43.336Z,20.52
2018-08-19T07:23:13.446Z,20.61
2018-08-19T07:25:44.414Z,20.71
2018-08-19T07:28:15.689Z,20.84
2018-08-19T07:30:45.427Z,20.99
2018-08-19T07:33:15.368Z,21.07
2018-08-19T07:35:45.047Z,21.15
2018-08-19T07:38:14.814Z,21.38
2018-08-19T07:40:44.512Z,21.50
2018-08-19T07:43:14.236Z,21.61
2018-08-19T07:45:43.930Z,21.76
2018-08-19T07:48:13.677Z,21.96
2018-08-19T07:50:43.420Z,22.15
2018-08-19T07:53:13.104Z,22.18
2018-08-19T07:55:42.842Z,22.30
2018-08-19T07:58:12.535Z,22.45
2018-08-19T08:00:42.432Z,22.61
2018-08-19T08:03:12.109Z,22.48
2018-08-19T08:05:48.107Z,22.54
2018-08-19T08:08:17.787Z,22.55
2018-08-19T08:10:47.518Z,22.75
2018-08-19T08:13:17.324Z,22.89
2018-08-19T08:15:51.972Z,23.06
2018-08-19T08:18:21.697Z,23.24
2018-08-19T08:20:59.368Z,23.44
2018-08-19T08:23:29.931Z,23.54
2018-08-19T08:25:59.659Z,23.61
2018-08-19T08:28:29.328Z,23.76
2018-08-19T08:30:59.089Z,23.90
2018-08-19T08:33:28.795Z,24.04
2018-08-19T08:35:59.128Z,24.07
2018-08-19T08:38:28.804Z,24.11
2018-08-19T08:40:58.542Z,24.37
2018-08-19T08:43:28.218Z,24.56
2018-08-19T08:45:58.429Z,24.52
2018-08-19T08:48:28.674Z,24.58
2018-08-19T08:50:58.369Z,24.81
2018-08-19T08:53:32.288Z,24.78
2018-08-19T08:56:01.996Z,25.00
2018-08-19T08:58:32.387Z,25.25
2018-08-19T09:01:02.103Z,25.43
2018-08-19T09:03:31.871Z,25.59
2018-08-19T09:06:01.551Z,25.67
2018-08-19T09:08:31.338Z,25.67
2018-08-19T09:11:02.999Z,25.38
2018-08-19T09:13:32.811Z,25.60
2018-08-19T09:16:02.463Z,25.74
2018-08-19T09:18:32.153Z,25.70
2018-08-19T09:21:01.830Z,25.89
2018-08-19T09:23:31.564Z,25.94
2018-08-19T09:26:01.212Z,25.87
2018-08-19T09:28:30.916Z,25.91
2018-08-19T09:31:00.584Z,25.91
2018-08-19T09:33:30.290Z,26.16
2018-08-19T09:35:59.955Z,26.32
2018-08-19T09:38:29.648Z,26.60
2018-08-19T09:40:59.385Z,26.80
2018-08-19T09:43:29.092Z,26.81
2018-08-19T09:45:58.843Z,26.83
2018-08-19T09:48:28.551Z,26.83
2018-08-19T09:51:02.327Z,27.00
2018-08-19T09:53:32.216Z,27.23
2018-08-19T09:56:06.948Z,27.19
2018-08-19T09:58:36.675Z,27.13
2018-08-19T10:01:11.809Z,27.23
2018-08-19T10:03:41.852Z,27.34
2018-08-19T10:06:11.508Z,27.31
2018-08-19T10:08:41.244Z,27.54
2018-08-19T10:11:10.938Z,27.67
2018-08-19T10:13:40.632Z,27.65
2018-08-19T10:16:10.362Z,27.80
2018-08-19T10:18:40.016Z,27.95
2018-08-19T10:21:13.793Z,28.06
2018-08-19T10:23:43.426Z,28.22
2018-08-19T10:26:13.100Z,28.19
2018-08-19T10:28:42.748Z,28.24
2018-08-19T10:31:17.798Z,28.34
2018-08-19T10:33:49.399Z,28.44
2018-08-19T10:36:19.096Z,28.31
2018-08-19T10:38:48.749Z,28.52
2018-08-19T10:41:18.538Z,28.51
2018-08-19T10:43:48.552Z,28.71
2018-08-19T10:46:18.260Z,28.75
2018-08-19T10:48:47.951Z,28.93
2018-08-19T10:51:17.611Z,28.62
2018-08-19T10:53:47.356Z,28.68
2018-08-19T10:56:17.073Z,28.68
2018-08-19T10:58:50.901Z,28.71
2018-08-19T11:01:21.715Z,28.93
2018-08-19T11:03:51.444Z,29.00
2018-08-19T11:06:21.099Z,29.00
2018-08-19T11:08:55.912Z,29.16
2018-08-19T11:11:27.383Z,29.37
2018-08-19T11:13:57.076Z,29.20
2018-08-19T11:16:26.736Z,29.22
2018-08-19T11:18:56.436Z,29.50
2018-08-19T11:21:31.162Z,29.25
2018-08-19T11:24:00.827Z,29.40
2018-08-19T11:26:30.543Z,29.52
2018-08-19T11:29:00.544Z,29.74
2018-08-19T11:31:32.478Z,29.77
2018-08-19T11:34:08.017Z,29.84
2018-08-19T11:36:44.577Z,29.76
2018-08-19T11:39:17.207Z,29.74
2018-08-19T11:41:46.940Z,30.02
2018-08-19T11:44:17.855Z,30.15
2018-08-19T11:46:47.565Z,30.31
2018-08-19T11:49:18.475Z,30.29
2018-08-19T11:51:50.958Z,30.32
2018-08-19T11:54:21.513Z,30.56
2018-08-19T11:57:11.345Z,30.51
2018-08-19T11:59:43.868Z,30.54
2018-08-19T12:02:17.986Z,30.40
2018-08-19T12:04:48.098Z,30.67
2018-08-19T12:07:18.256Z,30.67
2018-08-19T12:09:55.021Z,30.61
2018-08-19T12:12:52.350Z,30.71
2018-08-19T12:15:22.055Z,30.87
2018-08-19T12:17:51.704Z,30.88
2018-08-19T12:20:26.480Z,31.03
2018-08-19T12:22:56.163Z,31.13
2018-08-19T12:25:25.818Z,30.57
2018-08-19T12:27:55.578Z,30.86
2018-08-19T12:30:25.231Z,31.06
2018-08-19T12:33:04.779Z,30.96
2018-08-19T12:35:34.533Z,31.15
2018-08-19T12:38:04.209Z,31.34
2018-08-19T12:40:36.705Z,31.53
2018-08-19T12:43:06.716Z,31.78
2018-08-19T12:45:36.415Z,31.85
2018-08-19T12:48:06.448Z,31.93
2018-08-19T12:50:36.185Z,31.86
2018-08-19T12:53:06.455Z,31.83
2018-08-19T12:55:36.122Z,31.89
2018-08-19T12:58:09.156Z,31.88
2018-08-19T13:00:38.776Z,31.93
2018-08-19T13:03:08.520Z,32.12
2018-08-19T13:06:09.227Z,32.21
2018-08-19T13:08:38.939Z,32.35
2018-08-19T13:11:08.643Z,32.40
2018-08-19T13:13:38.350Z,32.10
2018-08-19T13:16:08.076Z,32.34
2018-08-19T13:18:41.425Z,32.20
2018-08-19T13:21:15.508Z,31.82
2018-08-19T13:23:45.227Z,32.05
2018-08-19T13:26:14.928Z,32.31
2018-08-19T13:28:48.503Z,32.30
2018-08-19T13:31:22.547Z,32.37
2018-08-19T13:33:52.335Z,32.29
2018-08-19T13:36:22.043Z,32.15
2018-08-19T13:38:51.717Z,32.32
2018-08-19T13:41:21.459Z,32.03
2018-08-19T13:43:51.102Z,32.06
2018-08-19T13:46:20.839Z,32.31
2018-08-19T13:48:50.559Z,32.38
2018-08-19T13:51:20.212Z,32.52
2018-08-19T13:53:49.913Z,32.76
2018-08-19T13:56:19.635Z,32.73
2018-08-19T13:58:49.291Z,32.69
2018-08-19T14:01:18.959Z,32.64
2018-08-19T14:03:48.622Z,32.62
2018-08-19T14:06:18.331Z,32.64
2018-08-19T14:08:47.995Z,32.84
2018-08-19T14:11:17.692Z,32.52
2018-08-19T14:13:47.396Z,32.39
2018-08-19T14:16:17.114Z,32.59
2018-08-19T14:18:46.756Z,32.61
2018-08-19T14:21:16.693Z,32.50
2018-08-19T14:23:46.388Z,32.45
2018-08-19T14:26:16.070Z,32.53
2018-08-19T14:28:45.783Z,32.63
2018-08-19T14:31:15.459Z,32.71
2018-08-19T14:33:45.157Z,32.27
2018-08-19T14:36:14.880Z,32.23
2018-08-19T14:38:44.718Z,32.39
2018-08-19T14:41:14.417Z,32.14
2018-08-19T14:43:58.679Z,32.00
2018-08-19T14:46:29.355Z,31.88
2018-08-19T14:49:03.219Z,31.60
2018-08-19T14:52:02.018Z,31.35
2018-08-19T14:54:31.680Z,31.19
2018-08-19T14:57:01.367Z,31.09
2018-08-19T14:59:31.080Z,31.01
2018-08-19T15:02:00.740Z,31.00
2018-08-19T15:04:30.459Z,30.95
2018-08-19T15:07:00.091Z,31.09
2018-08-19T15:09:31.438Z,31.05
2018-08-19T15:12:35.088Z,31.01
2018-08-19T15:15:04.864Z,30.96
2018-08-19T15:17:34.520Z,30.99
2018-08-19T15:20:04.347Z,30.92
2018-08-19T15:22:34.044Z,30.83
2018-08-19T15:25:03.707Z,30.59
2018-08-19T15:27:39.044Z,30.57
2018-08-19T15:30:10.247Z,30.56
2018-08-19T15:32:40.270Z,30.66
2018-08-19T15:35:09.588Z,30.65
2018-08-19T15:37:39.308Z,30.64
2018-08-19T15:40:09.023Z,30.60
2018-08-19T15:42:38.667Z,30.57
2018-08-19T15:45:08.403Z,30.51
2018-08-19T15:47:38.088Z,30.40
2018-08-19T15:50:16.864Z,30.44
2018-08-19T15:52:46.669Z,30.44
2018-08-19T15:55:16.408Z,30.41
2018-08-19T15:57:46.088Z,30.43
2018-08-19T16:00:15.768Z,30.38
2018-08-19T16:02:45.459Z,30.34
2018-08-19T16:05:16.488Z,30.32
2018-08-19T16:07:47.121Z,30.35
2018-08-19T16:10:17.176Z,30.33
2018-08-19T16:12:51.063Z,30.32
2018-08-19T16:15:24.771Z,30.30
2018-08-19T16:17:55.818Z,30.23
2018-08-19T16:20:25.847Z,30.16
2018-08-19T16:22:55.807Z,30.11
2018-08-19T16:25:25.499Z,30.08
2018-08-19T16:27:55.227Z,30.06
2018-08-19T16:30:24.892Z,29.98
2018-08-19T16:32:54.560Z,29.93
2018-08-19T16:35:24.254Z,29.85
2018-08-19T16:37:53.934Z,29.71
2018-08-19T16:40:23.670Z,29.67
2018-08-19T16:42:53.403Z,29.61
2018-08-19T16:45:23.096Z,29.52
2018-08-19T16:47:52.759Z,29.58
2018-08-19T16:50:22.595Z,29.51
2018-08-19T16:52:52.191Z,29.43
2018-08-19T16:55:21.835Z,29.38
2018-08-19T16:57:51.503Z,29.30
2018-08-19T17:00:21.188Z,29.23
2018-08-19T17:02:50.921Z,29.20
2018-08-19T17:05:28.451Z,29.20
2018-08-19T17:07:58.320Z,29.14
2018-08-19T17:10:29.280Z,29.08
2018-08-19T17:12:59.395Z,29.01
2018-08-19T17:15:29.644Z,28.97
2018-08-19T17:17:59.744Z,28.93
2018-08-19T17:20:29.464Z,28.84
2018-08-19T17:22:59.096Z,28.75
2018-08-19T17:25:28.823Z,28.70
2018-08-19T17:28:05.356Z,28.66
2018-08-19T17:30:35.000Z,28.61
2018-08-19T17:33:08.754Z,28.59
2018-08-19T17:35:39.776Z,28.48
2018-08-19T17:38:09.472Z,28.44
2018-08-19T17:40:39.169Z,28.38
2018-08-19T17:43:09.711Z,28.33
2018-08-19T17:45:39.468Z,28.23
2018-08-19T17:48:09.104Z,28.17
2018-08-19T17:50:39.520Z,28.02
2018-08-19T17:53:09.216Z,27.97
2018-08-19T17:55:38.887Z,27.93
2018-08-19T17:58:08.549Z,27.89
2018-08-19T18:00:38.248Z,27.77
2018-08-19T18:03:07.909Z,27.66
2018-08-19T18:05:37.714Z,27.60
2018-08-19T18:08:07.395Z,27.52
2018-08-19T18:10:38.167Z,27.46
2018-08-19T18:13:07.875Z,27.39
2018-08-19T18:15:37.592Z,27.30
2018-08-19T18:18:07.288Z,27.23
2018-08-19T18:20:38.676Z,27.17
2018-08-19T18:23:19.061Z,27.14
2018-08-19T18:25:49.520Z,27.04
2018-08-19T18:28:23.540Z,26.90
2018-08-19T18:31:09.865Z,26.82
2018-08-19T18:34:02.304Z,26.81
2018-08-19T18:36:33.739Z,26.72
2018-08-19T18:39:05.608Z,26.68
2018-08-19T18:41:39.689Z,26.53
2018-08-19T18:44:11.491Z,26.49
2018-08-19T18:46:41.255Z,26.39
2018-08-19T18:49:15.099Z,26.33
2018-08-19T18:51:47.658Z,26.29
2018-08-19T18:54:26.672Z,26.14
2018-08-19T18:56:56.337Z,26.16
2018-08-19T18:59:25.995Z,25.99
2018-08-19T19:01:58.412Z,25.97
2018-08-19T19:04:28.383Z,25.91
2018-08-19T19:06:58.192Z,25.85
2018-08-19T19:09:51.852Z,25.75
2018-08-19T19:12:22.993Z,25.69
2018-08-19T19:14:52.708Z,25.62
2018-08-19T19:17:22.415Z,25.59
2018-08-19T19:19:52.179Z,25.53
2018-08-19T19:22:21.856Z,25.53
2018-08-19T19:24:52.929Z,25.51
2018-08-19T19:27:22.644Z,25.38
2018-08-19T19:29:57.532Z,25.32
2018-08-19T19:32:27.229Z,25.25
2018-08-19T19:35:00.062Z,25.24
2018-08-19T19:37:29.755Z,25.18
2018-08-19T19:40:03.527Z,25.09
2018-08-19T19:42:33.282Z,24.99
2018-08-19T19:45:03.394Z,24.91
2018-08-19T19:47:33.264Z,24.81
2018-08-19T19:50:03.316Z,24.75
2018-08-19T19:52:32.908Z,24.70
2018-08-19T19:55:02.667Z,24.65
2018-08-19T19:57:32.426Z,24.61
2018-08-19T20:00:02.140Z,24.57
2018-08-19T20:02:32.693Z,24.48
2018-08-19T20:05:09.257Z,24.44
2018-08-19T20:07:39.048Z,24.39
2018-08-19T20:10:13.235Z,24.28
2018-08-19T20:12:42.952Z,24.22
2018-08-19T20:15:12.764Z,24.17
2018-08-19T20:17:42.476Z,24.11
2018-08-19T20:20:12.221Z,24.02
2018-08-19T20:22:41.923Z,24.01
2018-08-19T20:25:11.708Z,23.94
2018-08-19T20:27:41.573Z,23.88
2018-08-19T20:30:11.519Z,23.86
2018-08-19T20:32:41.427Z,23.91
2018-08-19T20:35:11.176Z,23.80
2018-08-19T20:37:40.903Z,23.73
2018-08-19T20:40:10.861Z,23.68
2018-08-19T20:42:40.672Z,23.62
2018-08-19T20:45:10.634Z,23.55
2018-08-19T20:47:41.482Z,23.54
2018-08-19T20:50:11.203Z,23.47
2018-08-19T20:52:46.454Z,23.46
2018-08-19T20:55:16.394Z,23.41
2018-08-19T20:57:46.387Z,23.31
2018-08-19T21:00:16.179Z,23.21
2018-08-19T21:02:45.864Z,23.22
2018-08-19T21:05:15.554Z,23.25
2018-08-19T21:07:45.256Z,23.25
2018-08-19T21:10:14.939Z,23.22
2018-08-19T21:12:44.700Z,23.24
2018-08-19T21:15:14.760Z,23.22
2018-08-19T21:17:44.441Z,23.26
2018-08-19T21:20:15.086Z,23.23
2018-08-19T21:22:44.772Z,23.19
2018-08-19T21:25:14.436Z,23.18
2018-08-19T21:27:44.206Z,23.11
2018-08-19T21:30:13.953Z,23.08
2018-08-19T21:32:43.718Z,22.98
2018-08-19T21:35:13.503Z,22.93
2018-08-19T21:37:43.616Z,22.87
2018-08-19T21:40:13.352Z,22.80
2018-08-19T21:42:50.258Z,22.78
2018-08-19T21:45:19.961Z,22.75
2018-08-19T21:47:49.645Z,22.70
2018-08-19T21:50:19.371Z,22.70
2018-08-19T21:53:00.475Z,22.66
2018-08-19T21:55:34.276Z,22.60
2018-08-19T21:58:04.460Z,22.57
2018-08-19T22:00:44.060Z,22.46
2018-08-19T22:03:20.688Z,22.42
2018-08-19T22:05:51.758Z,22.36
2018-08-19T22:08:22.924Z,22.24
2018-08-19T22:10:52.699Z,22.20
2018-08-19T22:13:22.419Z,22.23
2018-08-19T22:15:52.071Z,22.15
2018-08-19T22:18:23.041Z,22.13
2018-08-19T22:21:04.419Z,22.14
2018-08-19T22:23:39.224Z,22.18
2018-08-19T22:26:09.891Z,22.10
2018-08-19T22:28:39.959Z,22.07
2018-08-19T22:31:21.271Z,22.02
2018-08-19T22:33:57.203Z,21.99
2018-08-19T22:36:27.104Z,21.93
2018-08-19T22:38:57.684Z,21.92
2018-08-19T22:41:31.897Z,21.90
2018-08-19T22:44:01.673Z,21.88
2018-08-19T22:46:31.419Z,21.87
2018-08-19T22:49:01.140Z,21.83
2018-08-19T22:51:32.336Z,21.81
2018-08-19T22:54:02.031Z,21.79
2018-08-19T22:56:31.716Z,21.72
2018-08-19T22:59:01.420Z,21.69
2018-08-19T23:01:36.228Z,21.64
2018-08-19T23:04:06.018Z,21.56
2018-08-19T23:06:35.699Z,21.52
2018-08-19T23:09:06.793Z,21.53
2018-08-19T23:11:41.568Z,21.51
2018-08-19T23:14:22.291Z,21.47
2018-08-19T23:16:51.986Z,21.51
2018-08-19T23:19:22.180Z,21.45
2018-08-19T23:21:52.130Z,21.42
2018-08-19T23:24:21.786Z,21.36
2018-08-19T23:26:51.455Z,21.34
2018-08-19T23:29:21.128Z,21.25
2018-08-19T23:31:50.767Z,21.20
2018-08-19T23:34:20.635Z,21.13
2018-08-19T23:36:50.288Z,21.07
2018-08-19T23:39:19.947Z,21.03
2018-08-19T23:41:49.694Z,20.97
2018-08-19T23:44:19.391Z,20.83
2018-08-19T23:46:49.094Z,20.82
2018-08-19T23:49:18.772Z,20.86
2018-08-19T23:51:48.447Z,20.86
2018-08-19T23:54:18.095Z,20.81
2018-08-19T23:56:47.805Z,20.77
2018-08-19T23:59:21.554Z,20.72
